WetterOnline ( https://www.wetteronline.de )

Wetter aktuell Trier

Aktuelles Wetter: Trier/Petrisberg (273m)

6-stündlich | Neueste Meldungen
Ortszeit Temperatur Wetter
Sa, 29.01. 1:00 2.8° C bedeckt
Fr, 28.01. 19:00 4.2° C bewölkt
Fr, 28.01. 13:00 4.4° C wolkig
Fr, 28.01. 7:00 1.9° C wolkenlos
Fr, 28.01. 1:00 2.3° C bewölkt
Do, 27.01. 19:00 1.6° C bedeckt
Do, 27.01. 13:00 0.3° C Sprühregen
Do, 27.01. 7:00 0.2° C bedeckt
Ortszeit Temperatur Wetter
Sa, 29.01. 3:30 2.5° C Sprühregen
Sa, 29.01. 3:20 2.5° C Sprühregen
Sa, 29.01. 3:10 2.5° C Sprühregen
Sa, 29.01. 3:00 2.5° C Sprühregen
Sa, 29.01. 2:50 2.5° C Sprühregen
Sa, 29.01. 2:40 2.5° C Sprühregen
Sa, 29.01. 2:30 2.5° C bedeckt
Sa, 29.01. 2:00 2.6° C bedeckt
Sa, 29.01. 1:30 2.6° C bedeckt
Sa, 29.01. 1:00 2.8° C bedeckt
Sa, 29.01. 0:30 2.8° C bedeckt
Ortszeit Relative Feuchte Sichtweite
Sa, 29.01. 1:00 93% 10 km
Fr, 28.01. 19:00 84% 28 km
Fr, 28.01. 13:00 86% 18 km
Fr, 28.01. 7:00 95% 13 km
Fr, 28.01. 1:00 96% 6 km
Do, 27.01. 19:00 97% 9 km
Do, 27.01. 13:00 97% 2.0 km
Do, 27.01. 7:00 92% 8 km
Ortszeit Relative Feuchte Sichtweite
Sa, 29.01. 3:30 98% 1.7 km
Sa, 29.01. 3:20 98% -
Sa, 29.01. 3:10 98% -
Sa, 29.01. 3:00 97% 2.5 km
Sa, 29.01. 2:50 97% -
Sa, 29.01. 2:40 96% -
Sa, 29.01. 2:30 96% 5.0 km
Sa, 29.01. 2:00 96% 6 km
Sa, 29.01. 1:30 96% 5.0 km
Sa, 29.01. 1:00 93% 10 km
Sa, 29.01. 0:30 91% 19 km
Ortszeit Niederschlagsmenge Niederschlagsart
Sa, 29.01. 1:00 0.0 l/m2 in 6 Std. -
Fr, 28.01. 19:00 0.0 l/m2 in 12 Std. -
Fr, 28.01. 13:00 0.0 l/m2 in 6 Std. -
Fr, 28.01. 7:00 0.2 l/m2 in 12 Std. Regen
Fr, 28.01. 1:00 0.2 l/m2 in 6 Std. Regen
Do, 27.01. 19:00 0.1 l/m2 in 12 Std. Sprühregen
Do, 27.01. 13:00 0.1 l/m2 in 6 Std. Regen
Do, 27.01. 7:00 0.0 l/m2 in 12 Std. -
Ortszeit Niederschlagsmenge Niederschlagsart
Sa, 29.01. 3:30 0.1 l/m2 in 1 Std. -
Sa, 29.01. 3:20 keine Meldung -
Sa, 29.01. 3:10 keine Meldung -
Sa, 29.01. 3:00 0.1 l/m2 in 1 Std. Sprühregen
Sa, 29.01. 2:50 keine Meldung -
Sa, 29.01. 2:40 keine Meldung -
Sa, 29.01. 2:30 0.0 l/m2 in 1 Std. -
Sa, 29.01. 2:00 0.0 l/m2 in 1 Std. -
Sa, 29.01. 1:30 0.0 l/m2 in 1 Std. -
Sa, 29.01. 1:00 0.0 l/m2 in 1 Std. -
Sa, 29.01. 0:30 0.0 l/m2 in 1 Std. -
Ortszeit Stärke Spitze Richtung
km/h Bft. km/h Grad Sektor
Sa, 29.01. 1:00 22 4 36 220° SW
Fr, 28.01. 19:00 14 3 29 240° SW
Fr, 28.01. 13:00 11 2 25 230° SW
Fr, 28.01. 7:00 7 2 26 220° SW
Fr, 28.01. 1:00 14 3 29 240° SW
Do, 27.01. 19:00 15 3 39 200° S
Do, 27.01. 13:00 29 5 43 220° SW
Do, 27.01. 7:00 18 3 32 220° SW
Ortszeit Stärke Spitze Richtung
km/h Bft. km/h Grad Sektor
Sa, 29.01. 3:30 22 4 36 230° SW
Sa, 29.01. 3:20 22 4 - 230° SW
Sa, 29.01. 3:10 22 4 - 230° SW
Sa, 29.01. 3:00 22 4 36 220° SW
Sa, 29.01. 2:50 22 4 - 220° SW
Sa, 29.01. 2:40 24 4 - 220° SW
Sa, 29.01. 2:30 24 4 37 220° SW
Sa, 29.01. 2:00 25 4 36 220° SW
Sa, 29.01. 1:30 22 4 35 220° SW
Sa, 29.01. 1:00 22 4 32 220° SW
Sa, 29.01. 0:30 22 4 29 220° SW
Ortszeit Untergrenze Bedeckung Gattung
total tief tief mittel hoch
Sa, 29.01. 1:00 150 m 8/8 8/8 - - -
Fr, 28.01. 19:00 390 m 7/8 7/8 - - -
Fr, 28.01. 13:00 390 m 6/8 6/8 - - -
Fr, 28.01. 7:00 - 0/8 0/8 - - -
Fr, 28.01. 1:00 150 m 7/8 7/8 - - -
Do, 27.01. 19:00 120 m 8/8 8/8 - - -
Do, 27.01. 13:00 90 m 8/8 8/8 - - -
Do, 27.01. 7:00 150 m 8/8 8/8 - - -
Ortszeit Bedeckungsgrad in Achtel und Wolkenuntergrenze
Sa, 29.01. 3:30 8(60m)
Sa, 29.01. 3:20 8(60m)
Sa, 29.01. 3:10 8
Sa, 29.01. 3:00 8(90m)
Sa, 29.01. 2:50 8(90m)
Sa, 29.01. 2:40 8
Sa, 29.01. 2:30 8(90m)
Sa, 29.01. 2:00 8(90m)
Sa, 29.01. 1:30 8(90m)
Sa, 29.01. 1:00 8(150m)
Sa, 29.01. 0:30 8(210m)
Ortszeit Luftdruck NN (hPa) Tendenz (hPa in 3 Std.)
Sa, 29.01. 1:00 1035 - 1,4
Fr, 28.01. 19:00 1037 + 0,5
Fr, 28.01. 13:00 1037 + 0,7
Fr, 28.01. 7:00 1034 + 1,2
Fr, 28.01. 1:00 1031 + 1,2
Do, 27.01. 19:00 1029 + 0,6
Do, 27.01. 13:00 1029 - 0,9
Do, 27.01. 7:00 1031 - 1,0
Ortszeit Luftdruck NN (hPa) Tendenz (hPa in 3 Std.)
Sa, 29.01. 3:30 1033 - 1,5
Sa, 29.01. 3:20 1033 keine Meldung
Sa, 29.01. 3:10 1034 keine Meldung
Sa, 29.01. 3:00 1034 - 1,7
Sa, 29.01. 2:50 1034 keine Meldung
Sa, 29.01. 2:40 1034 keine Meldung
Sa, 29.01. 2:30 1034 - 1,4
Sa, 29.01. 2:00 1034 - 1,9
Sa, 29.01. 1:30 1034 - 1,6
Sa, 29.01. 1:00 1035 - 1,4
Sa, 29.01. 0:30 1035 - 1,2
Ortszeit Schneehöhe (cm)
Sa, 29.01. 1:00 0
Fr, 28.01. 19:00 0
Fr, 28.01. 13:00 0
Fr, 28.01. 7:00 0
Fr, 28.01. 1:00 0
Do, 27.01. 19:00 0
Do, 27.01. 13:00 0
Do, 27.01. 7:00 0
Ortszeit Schneehöhe (cm)
Sa, 29.01. 3:30 0
Sa, 29.01. 3:20 0
Sa, 29.01. 3:10 0
Sa, 29.01. 3:00 0
Sa, 29.01. 2:50 0
Sa, 29.01. 2:40 0
Sa, 29.01. 2:30 0
Sa, 29.01. 2:00 0
Sa, 29.01. 1:30 0
Sa, 29.01. 1:00 0
Sa, 29.01. 0:30 0
Link zu dieser Seite / Seite empfehlen

Das Wetter in ...